Time;durP1;ratioP1;P1;durP2;ratioP2;P2;SDS_P1;SDS_P2;PMS_P1;PMS_P2;Temp;Humidity;BMP_temperature;BMP_pressure;BME280_temperature;BME280_humidity;BME280_pressure;Samples;Min_cycle;Max_cycle;Signal;HPM_P1;HPM_P2
2021/10/24 00:00:07;;;;;;;14.02;6.80;;;10.20;96.50;;;;;;5104906;28;20111;-71
2021/10/24 00:02:33;;;;;;;14.95;8.73;;;10.20;96.50;;;;;;5079326;28;20098;-72
2021/10/24 00:04:58;;;;;;;15.93;7.22;;;10.10;96.50;;;;;;5073940;28;20468;-71
2021/10/24 00:07:24;;;;;;;15.07;7.07;;;10.10;96.50;;;;;;5081778;28;20483;-72
2021/10/24 00:09:50;;;;;;;11.30;6.18;;;10.10;96.50;;;;;;5091703;28;20111;-72
2021/10/24 00:12:17;;;;;;;11.73;6.03;;;10.10;96.50;;;;;;5073390;28;20412;-71
2021/10/24 00:14:42;;;;;;;10.85;6.28;;;10.10;96.50;;;;;;5091094;28;20097;-72
2021/10/24 00:17:08;;;;;;;11.13;6.20;;;10.10;96.50;;;;;;5078548;28;20495;-71
2021/10/24 00:19:34;;;;;;;10.63;6.25;;;10.20;96.60;;;;;;5084247;28;20032;-71
2021/10/24 00:22:00;;;;;;;15.10;6.57;;;10.20;96.60;;;;;;5079803;28;20032;-70
2021/10/24 00:24:26;;;;;;;11.15;5.47;;;10.20;96.60;;;;;;5092371;28;20028;-70
2021/10/24 00:26:51;;;;;;;13.75;6.07;;;10.20;96.60;;;;;;5087108;28;20025;-72
2021/10/24 00:29:17;;;;;;;11.20;5.80;;;10.20;96.50;;;;;;5073746;28;20024;-71
2021/10/24 00:31:42;;;;;;;12.60;6.35;;;10.20;96.60;;;;;;5073598;28;20028;-71
2021/10/24 00:34:08;;;;;;;9.85;5.55;;;10.20;96.50;;;;;;5078643;28;20039;-71
2021/10/24 00:36:33;;;;;;;10.55;5.70;;;10.20;96.50;;;;;;5091908;28;20029;-71
2021/10/24 00:38:59;;;;;;;13.00;5.55;;;10.20;96.50;;;;;;5078794;28;20020;-71
2021/10/24 00:41:24;;;;;;;12.07;6.47;;;10.30;96.50;;;;;;5076134;28;20131;-72
2021/10/24 00:43:50;;;;;;;12.07;5.75;;;10.30;96.50;;;;;;5082513;28;20067;-72
2021/10/24 00:46:15;;;;;;;10.25;5.55;;;10.30;96.50;;;;;;5091099;28;20025;-71
2021/10/24 00:48:41;;;;;;;10.57;5.20;;;10.30;96.50;;;;;;5075150;28;20123;-71
2021/10/24 00:51:08;;;;;;;12.98;5.88;;;10.30;96.50;;;;;;5090497;28;20020;-71
2021/10/24 00:53:33;;;;;;;10.98;5.72;;;10.30;96.50;;;;;;5084085;28;20664;-71
2021/10/24 00:55:59;;;;;;;12.65;5.40;;;10.30;96.50;;;;;;5072495;28;20021;-72
2021/10/24 00:58:25;;;;;;;9.27;5.22;;;10.40;96.40;;;;;;5089796;28;20035;-71
2021/10/24 01:00:50;;;;;;;9.60;5.18;;;10.30;96.40;;;;;;5091728;28;20024;-72
2021/10/24 01:03:16;;;;;;;8.30;4.72;;;10.30;96.40;;;;;;5089797;28;20080;-71
2021/10/24 01:05:42;;;;;;;10.88;5.38;;;10.40;96.40;;;;;;5081297;28;20024;-71
2021/10/24 01:08:09;;;;;;;14.48;5.88;;;10.30;96.30;;;;;;5085538;28;20125;-71
2021/10/24 01:10:36;;;;;;;11.43;5.07;;;10.40;96.30;;;;;;5091336;28;20028;-71
2021/10/24 01:13:02;;;;;;;7.78;4.97;;;10.30;96.30;;;;;;5072593;28;20238;-71
2021/10/24 01:15:27;;;;;;;11.35;6.00;;;10.30;96.30;;;;;;5072262;28;20549;-71
2021/10/24 01:17:53;;;;;;;12.55;5.18;;;10.30;96.50;;;;;;5075449;28;20633;-71
2021/10/24 01:20:25;;;;;;;10.80;5.10;;;10.30;96.20;;;;;;5095525;28;20027;-71
2021/10/24 01:22:52;;;;;;;12.38;5.45;;;10.30;96.20;;;;;;5072999;28;20028;-71
2021/10/24 01:25:18;;;;;;;15.25;4.88;;;10.30;96.20;;;;;;5072406;28;20480;-72
2021/10/24 01:27:44;;;;;;;15.35;5.18;;;10.20;96.40;;;;;;5081361;28;20033;-72
2021/10/24 01:30:10;;;;;;;12.07;4.85;;;10.20;96.30;;;;;;5072165;28;20035;-72
2021/10/24 01:32:35;;;;;;;11.68;5.07;;;10.20;96.30;;;;;;5073969;28;20067;-72
2021/10/24 01:35:01;;;;;;;10.20;4.53;;;10.20;96.30;;;;;;5080103;28;20028;-72
2021/10/24 01:37:38;;;;;;;13.45;5.10;;;10.20;96.30;;;;;;5079660;28;20090;-72
2021/10/24 01:40:07;;;;;;;8.82;4.47;;;10.10;96.30;;;;;;5070984;28;20027;-72
2021/10/24 01:42:34;;;;;;;10.90;5.13;;;10.10;96.30;;;;;;5083730;28;20024;-71
2021/10/24 01:45:07;;;;;;;11.63;5.13;;;10.10;96.30;;;;;;5089823;28;20502;-72
2021/10/24 01:47:33;;;;;;;9.02;4.40;;;10.10;96.40;;;;;;5090216;28;20502;-72
2021/10/24 01:49:58;;;;;;;12.95;5.00;;;10.10;96.40;;;;;;5074305;28;20032;-72
2021/10/24 01:52:24;;;;;;;8.68;5.00;;;10.10;96.40;;;;;;5071999;28;20134;-72
2021/10/24 01:54:49;;;;;;;10.13;4.80;;;10.00;96.40;;;;;;5077971;28;20051;-72
2021/10/24 01:57:15;;;;;;;10.48;5.32;;;10.00;96.40;;;;;;5082249;28;20047;-72
2021/10/24 01:59:40;;;;;;;11.23;4.78;;;10.00;96.40;;;;;;5091111;28;20123;-71
2021/10/24 02:02:06;;;;;;;9.27;4.90;;;9.90;96.50;;;;;;5082317;28;20032;-72
2021/10/24 02:04:32;;;;;;;11.82;5.32;;;9.90;96.50;;;;;;5087066;28;20069;-73
2021/10/24 02:06:57;;;;;;;10.30;5.28;;;9.90;96.50;;;;;;5082116;28;20028;-72
2021/10/24 02:09:23;;;;;;;8.68;5.35;;;9.90;96.50;;;;;;5083597;28;20057;-72
2021/10/24 02:11:48;;;;;;;11.90;5.30;;;9.80;96.60;;;;;;5082650;28;20040;-73
2021/10/24 02:14:14;;;;;;;15.07;5.85;;;9.80;96.60;;;;;;5071659;28;20391;-74
2021/10/24 02:16:39;;;;;;;12.68;5.47;;;9.80;96.60;;;;;;5077230;28;20050;-73
2021/10/24 02:19:05;;;;;;;10.77;5.93;;;9.80;96.70;;;;;;5093242;28;20039;-72
2021/10/24 02:21:30;;;;;;;10.00;5.80;;;9.80;96.70;;;;;;5101424;28;20548;-71
2021/10/24 02:23:56;;;;;;;13.13;5.72;;;9.80;96.70;;;;;;5072009;28;20078;-69
2021/10/24 02:26:21;;;;;;;14.85;5.88;;;9.80;96.80;;;;;;5074454;28;20024;-69
2021/10/24 02:28:46;;;;;;;12.10;6.05;;;9.70;96.80;;;;;;5091898;28;20089;-69
2021/10/24 02:31:12;;;;;;;12.45;5.03;;;9.70;96.80;;;;;;5089295;28;20103;-69
2021/10/24 02:33:37;;;;;;;10.18;5.22;;;9.70;96.80;;;;;;5091502;28;20028;-69
2021/10/24 02:36:03;;;;;;;9.98;5.30;;;9.70;96.80;;;;;;5088080;28;20108;-69
2021/10/24 02:38:29;;;;;;;14.70;5.85;;;9.70;96.90;;;;;;5071544;28;20433;-70
2021/10/24 02:40:54;;;;;;;11.40;5.55;;;9.70;96.90;;;;;;5074074;28;20032;-70
2021/10/24 02:43:20;;;;;;;12.40;5.40;;;9.70;96.90;;;;;;5071298;28;20042;-70
2021/10/24 02:45:45;;;;;;;8.70;4.90;;;9.60;96.90;;;;;;5071430;28;20460;-70
2021/10/24 02:48:11;;;;;;;15.90;5.93;;;9.60;96.90;;;;;;5070683;28;20025;-70
2021/10/24 02:50:36;;;;;;;13.85;5.63;;;9.60;96.90;;;;;;5071412;28;20423;-70
2021/10/24 02:53:02;;;;;;;13.18;6.20;;;9.60;96.90;;;;;;5071019;28;20040;-70
2021/10/24 02:55:27;;;;;;;12.90;6.22;;;9.50;96.90;;;;;;5071007;28;20032;-70
2021/10/24 02:57:53;;;;;;;13.13;5.90;;;9.60;96.90;;;;;;5086907;28;20040;-70
2021/10/24 03:00:19;;;;;;;11.23;5.97;;;9.50;97.00;;;;;;5091240;28;20028;-70
2021/10/24 03:02:44;;;;;;;8.45;5.22;;;9.50;97.00;;;;;;5092960;28;20494;-70
2021/10/24 03:05:10;;;;;;;14.18;5.60;;;9.50;97.00;;;;;;5095366;28;20101;-70
2021/10/24 03:07:37;;;;;;;10.48;5.38;;;9.50;97.00;;;;;;5093476;28;20106;-71
2021/10/24 03:10:03;;;;;;;10.63;5.25;;;9.50;97.10;;;;;;5094573;28;20419;-70
2021/10/24 03:12:29;;;;;;;8.52;5.28;;;9.50;97.10;;;;;;5081479;28;20068;-70
2021/10/24 03:14:54;;;;;;;11.52;5.53;;;9.50;97.10;;;;;;5074496;28;20492;-70
2021/10/24 03:17:20;;;;;;;9.50;5.00;;;9.50;97.20;;;;;;5085989;28;20438;-70
2021/10/24 03:19:45;;;;;;;13.82;5.30;;;9.50;97.20;;;;;;5095227;28;20518;-70
2021/10/24 03:22:11;;;;;;;14.85;5.93;;;9.50;97.20;;;;;;5082384;28;20067;-70
2021/10/24 03:24:37;;;;;;;13.65;4.95;;;9.50;97.20;;;;;;5074697;28;20055;-70
2021/10/24 03:27:02;;;;;;;12.75;5.32;;;9.40;97.20;;;;;;5082876;28;20092;-70
2021/10/24 03:29:28;;;;;;;9.43;5.93;;;9.50;97.30;;;;;;5094876;28;20104;-70
2021/10/24 03:31:54;;;;;;;12.20;5.95;;;9.40;97.30;;;;;;5092479;28;20044;-70
2021/10/24 03:34:19;;;;;;;9.75;5.82;;;9.50;97.30;;;;;;5094819;28;20050;-70
2021/10/24 03:36:46;;;;;;;12.02;5.95;;;9.50;97.30;;;;;;5093109;28;20036;-70
2021/10/24 03:39:11;;;;;;;13.23;5.30;;;9.50;97.30;;;;;;5093887;28;20535;-70
2021/10/24 03:41:37;;;;;;;11.90;6.03;;;9.50;97.30;;;;;;5093729;28;20059;-70
2021/10/24 03:44:03;;;;;;;9.32;4.82;;;9.50;97.30;;;;;;5094547;28;20354;-70
2021/10/24 03:46:31;;;;;;;10.88;5.30;;;9.50;97.30;;;;;;5085794;28;20487;-70
2021/10/24 03:48:58;;;;;;;8.68;5.20;;;9.50;97.30;;;;;;5086575;28;20453;-70
2021/10/24 03:51:23;;;;;;;9.02;5.07;;;9.50;97.30;;;;;;5077964;28;20020;-70
2021/10/24 03:53:49;;;;;;;11.73;4.55;;;9.60;97.30;;;;;;5094097;28;20161;-70
2021/10/24 03:56:14;;;;;;;8.75;5.30;;;9.60;97.30;;;;;;5090698;28;20017;-70
2021/10/24 03:58:40;;;;;;;10.98;4.97;;;9.60;97.30;;;;;;5074285;28;20063;-70
2021/10/24 04:01:05;;;;;;;8.80;4.63;;;9.60;97.30;;;;;;5073324;28;20024;-70
2021/10/24 04:03:32;;;;;;;10.15;4.68;;;9.60;97.30;;;;;;5073915;28;20024;-70
2021/10/24 04:05:58;;;;;;;9.38;4.72;;;9.60;97.30;;;;;;5073428;28;20025;-70
2021/10/24 04:08:24;;;;;;;9.70;4.72;;;9.60;97.20;;;;;;5092937;28;20025;-70
2021/10/24 04:10:49;;;;;;;9.05;4.68;;;9.60;97.20;;;;;;5092366;28;20024;-70
2021/10/24 04:13:15;;;;;;;9.23;4.22;;;9.60;97.20;;;;;;5072909;28;20024;-70
2021/10/24 04:15:41;;;;;;;11.27;4.40;;;9.60;97.20;;;;;;5073682;28;20555;-70
2021/10/24 04:18:06;;;;;;;8.55;4.63;;;9.60;97.20;;;;;;5091060;28;20032;-70
2021/10/24 04:20:32;;;;;;;12.38;4.93;;;9.60;97.10;;;;;;5077805;28;20021;-70
2021/10/24 04:22:57;;;;;;;12.75;4.55;;;9.60;97.20;;;;;;5089340;28;20036;-69
2021/10/24 04:25:25;;;;;;;12.32;5.90;;;9.70;97.20;;;;;;5093525;28;20024;-70
2021/10/24 04:27:50;;;;;;;6.72;4.10;;;9.60;97.10;;;;;;5076139;28;20024;-70
2021/10/24 04:30:16;;;;;;;7.88;4.60;;;9.70;97.10;;;;;;5072971;28;20051;-69
2021/10/24 04:32:43;;;;;;;10.45;4.63;;;9.70;97.10;;;;;;5086000;28;20052;-69
2021/10/24 04:35:12;;;;;;;8.88;4.60;;;9.70;97.10;;;;;;5093378;28;20032;-69
2021/10/24 04:37:39;;;;;;;12.02;5.47;;;9.70;97.00;;;;;;5080067;28;20124;-70
2021/10/24 04:40:05;;;;;;;8.07;4.80;;;9.70;97.00;;;;;;5073125;28;20099;-69
2021/10/24 04:42:31;;;;;;;8.10;4.47;;;9.70;97.00;;;;;;5072806;28;20051;-70
2021/10/24 04:44:56;;;;;;;9.02;4.65;;;9.70;97.00;;;;;;5072525;28;20017;-69
2021/10/24 04:47:23;;;;;;;11.23;5.35;;;9.60;96.90;;;;;;5084220;28;20484;-70
2021/10/24 04:49:49;;;;;;;11.20;5.15;;;9.60;96.90;;;;;;5078135;28;20029;-69
2021/10/24 04:52:15;;;;;;;11.38;4.88;;;9.60;96.80;;;;;;5083247;28;20115;-70
2021/10/24 04:54:40;;;;;;;8.50;4.57;;;9.60;96.80;;;;;;5092853;28;20135;-70
2021/10/24 04:57:06;;;;;;;10.55;4.50;;;9.50;96.70;;;;;;5082128;28;20472;-71
2021/10/24 04:59:32;;;;;;;10.43;4.68;;;9.50;96.70;;;;;;5072573;28;20016;-70
2021/10/24 05:01:58;;;;;;;7.70;5.15;;;9.50;96.70;;;;;;5081186;28;20028;-70
2021/10/24 05:04:24;;;;;;;11.30;4.72;;;9.40;96.60;;;;;;5072873;28;20021;-70
2021/10/24 05:06:49;;;;;;;7.63;4.68;;;9.40;96.60;;;;;;5074932;28;20115;-70
2021/10/24 05:09:16;;;;;;;10.13;4.47;;;9.40;96.60;;;;;;5070863;28;20024;-70
2021/10/24 05:11:41;;;;;;;10.02;4.70;;;9.30;96.60;;;;;;5078119;28;20036;-71
2021/10/24 05:14:07;;;;;;;12.23;4.85;;;9.30;96.50;;;;;;5092312;28;20376;-71
2021/10/24 05:16:33;;;;;;;6.75;4.72;;;9.20;96.50;;;;;;5085061;28;20028;-71
2021/10/24 05:18:59;;;;;;;10.65;5.82;;;9.20;96.50;;;;;;5092561;28;20039;-71
2021/10/24 05:21:24;;;;;;;10.00;4.97;;;9.20;96.60;;;;;;5090999;28;20016;-70
2021/10/24 05:23:50;;;;;;;8.35;5.22;;;9.10;96.50;;;;;;5092188;28;20472;-70
2021/10/24 05:26:15;;;;;;;9.48;4.68;;;9.00;96.50;;;;;;5087977;28;20069;-71
2021/10/24 05:28:41;;;;;;;9.07;4.97;;;9.00;96.60;;;;;;5072501;28;20025;-71
2021/10/24 05:31:06;;;;;;;10.73;5.15;;;8.90;96.60;;;;;;5073414;28;20054;-71
2021/10/24 05:33:32;;;;;;;13.23;5.68;;;8.80;96.60;;;;;;5092642;28;20043;-71
2021/10/24 05:35:57;;;;;;;11.30;5.78;;;8.80;96.70;;;;;;5090374;28;20020;-70
2021/10/24 05:38:24;;;;;;;14.13;5.82;;;8.80;96.70;;;;;;5092411;28;20065;-70
2021/10/24 05:40:49;;;;;;;9.95;5.57;;;8.70;96.70;;;;;;5091794;28;20125;-69
2021/10/24 05:43:15;;;;;;;12.32;5.68;;;8.70;96.70;;;;;;5089309;28;20036;-74
2021/10/24 05:45:44;;;;;;;10.27;5.97;;;8.60;96.80;;;;;;5091329;28;20028;-72
2021/10/24 05:48:14;;;;;;;10.63;5.70;;;8.60;96.80;;;;;;5072975;28;20028;-71
2021/10/24 05:50:40;;;;;;;10.32;5.50;;;8.60;96.90;;;;;;5087216;28;20378;-70
2021/10/24 05:53:07;;;;;;;13.82;6.00;;;8.50;96.80;;;;;;5089649;28;20189;-71
2021/10/24 05:55:33;;;;;;;10.45;6.53;;;8.50;97.10;;;;;;5084011;28;20081;-73
2021/10/24 05:57:59;;;;;;;11.85;6.10;;;8.40;96.90;;;;;;5074659;28;20033;-74
2021/10/24 06:00:25;;;;;;;9.70;5.57;;;8.40;97.10;;;;;;5086008;28;20100;-74
2021/10/24 06:02:50;;;;;;;16.92;5.90;;;8.40;96.90;;;;;;5072162;28;20521;-74
2021/10/24 06:05:16;;;;;;;9.90;5.22;;;8.40;97.00;;;;;;5070851;28;20020;-74
2021/10/24 06:07:41;;;;;;;11.32;6.20;;;8.40;97.00;;;;;;5076756;28;20032;-73
2021/10/24 06:10:17;;;;;;;14.15;6.15;;;8.30;97.00;;;;;;5081285;28;20103;-73
2021/10/24 06:12:46;;;;;;;10.88;6.07;;;8.30;97.00;;;;;;5084736;28;20036;-73
2021/10/24 06:15:15;;;;;;;10.27;6.80;;;8.30;97.10;;;;;;5073855;28;20035;-73
2021/10/24 06:17:42;;;;;;;11.68;6.60;;;8.30;97.10;;;;;;5075659;28;20040;-73
2021/10/24 06:20:09;;;;;;;9.82;5.90;;;8.20;97.10;;;;;;5078483;28;20265;-74
2021/10/24 06:22:38;;;;;;;15.55;6.60;;;8.20;97.10;;;;;;5077897;28;20055;-74
2021/10/24 06:25:04;;;;;;;10.60;6.20;;;8.20;97.20;;;;;;5071813;28;20028;-73
2021/10/24 06:27:30;;;;;;;13.25;6.68;;;8.20;97.20;;;;;;5081787;28;20024;-71
2021/10/24 06:29:55;;;;;;;11.07;6.70;;;8.20;97.20;;;;;;5081734;28;20032;-73
2021/10/24 06:32:21;;;;;;;15.60;6.45;;;8.20;97.20;;;;;;5078869;28;20511;-73
2021/10/24 06:34:46;;;;;;;9.40;5.75;;;8.10;97.20;;;;;;5071071;28;20048;-73
2021/10/24 06:37:17;;;;;;;20.58;7.05;;;8.20;97.30;;;;;;5078027;28;20403;-72
2021/10/24 06:39:43;;;;;;;10.50;6.47;;;8.10;97.30;;;;;;5083119;28;20039;-72
2021/10/24 06:42:08;;;;;;;13.15;6.70;;;8.20;97.30;;;;;;5090341;28;20032;-72
2021/10/24 06:44:34;;;;;;;14.43;7.78;;;8.20;97.30;;;;;;5076298;28;20107;-75
2021/10/24 06:46:59;;;;;;;15.68;7.38;;;8.10;97.40;;;;;;5081112;28;20024;-71
2021/10/24 06:49:24;;;;;;;17.50;7.40;;;8.20;97.50;;;;;;5083251;28;20035;-72
2021/10/24 06:51:50;;;;;;;12.98;7.07;;;8.10;97.50;;;;;;5073050;28;20021;-71
2021/10/24 06:54:16;;;;;;;16.63;7.32;;;8.20;97.60;;;;;;5074374;28;20150;-70
2021/10/24 06:56:41;;;;;;;10.95;7.45;;;8.20;97.70;;;;;;5088319;28;20032;-70
2021/10/24 06:59:07;;;;;;;14.25;8.20;;;8.20;97.70;;;;;;5074453;28;20685;-69
2021/10/24 07:01:32;;;;;;;14.20;6.57;;;8.20;97.70;;;;;;5083608;28;20039;-72
2021/10/24 07:03:57;;;;;;;18.85;7.65;;;8.20;97.70;;;;;;5079457;28;20107;-71
2021/10/24 07:06:23;;;;;;;15.27;7.57;;;8.20;97.60;;;;;;5084540;28;20053;-72
2021/10/24 07:08:49;;;;;;;12.50;7.38;;;8.30;97.70;;;;;;5079086;28;20032;-71
2021/10/24 07:11:15;;;;;;;10.68;6.70;;;8.30;97.70;;;;;;5073566;28;20024;-72
2021/10/24 07:13:40;;;;;;;17.13;8.00;;;8.30;97.70;;;;;;5088094;28;20031;-72
2021/10/24 07:16:06;;;;;;;14.23;7.90;;;8.40;97.90;;;;;;5079490;28;20482;-73
2021/10/24 07:18:31;;;;;;;18.17;8.20;;;8.40;97.90;;;;;;5076723;28;20028;-72
2021/10/24 07:20:57;;;;;;;13.27;7.68;;;8.40;97.90;;;;;;5089370;28;20540;-73
2021/10/24 07:23:22;;;;;;;15.05;7.63;;;8.40;97.90;;;;;;5065833;28;20025;-74
2021/10/24 07:25:48;;;;;;;17.27;7.45;;;8.40;97.90;;;;;;5075454;28;20028;-69
2021/10/24 07:28:13;;;;;;;17.00;7.88;;;8.40;97.90;;;;;;5078851;28;20112;-70
2021/10/24 07:30:39;;;;;;;15.73;8.25;;;8.40;97.90;;;;;;5073639;28;20413;-71
2021/10/24 07:33:04;;;;;;;12.13;7.40;;;8.50;97.90;;;;;;5086160;28;20491;-72
2021/10/24 07:35:30;;;;;;;14.23;7.25;;;8.50;97.90;;;;;;5073434;28;20025;-72
2021/10/24 07:37:57;;;;;;;13.98;7.70;;;8.50;97.90;;;;;;5081444;28;20044;-71
2021/10/24 07:40:23;;;;;;;18.05;8.48;;;8.50;97.90;;;;;;5080169;28;20024;-70
2021/10/24 07:42:49;;;;;;;26.65;8.30;;;8.60;98.00;;;;;;5079794;28;20366;-71
2021/10/24 07:45:15;;;;;;;15.05;8.98;;;8.50;97.90;;;;;;5080741;28;20031;-71
2021/10/24 07:47:41;;;;;;;13.93;8.38;;;8.60;98.00;;;;;;5087635;28;20032;-70
2021/10/24 07:50:09;;;;;;;11.75;7.50;;;8.60;97.90;;;;;;5083566;28;20473;-71
2021/10/24 07:52:37;;;;;;;14.98;8.20;;;8.60;97.90;;;;;;5080125;28;20075;-69
2021/10/24 07:55:03;;;;;;;15.95;7.78;;;8.70;97.90;;;;;;5082407;28;20037;-69
2021/10/24 07:57:31;;;;;;;13.57;7.93;;;8.70;97.90;;;;;;5087009;28;20042;-70
2021/10/24 07:59:57;;;;;;;15.43;8.45;;;8.70;97.90;;;;;;5075463;28;20020;-71
2021/10/24 08:02:22;;;;;;;11.88;7.35;;;8.70;97.70;;;;;;5086002;28;20024;-71
2021/10/24 08:04:48;;;;;;;16.35;8.15;;;8.80;97.70;;;;;;5080629;28;20132;-71
2021/10/24 08:07:15;;;;;;;16.35;8.40;;;8.80;97.70;;;;;;5076380;28;20037;-71
2021/10/24 08:09:42;;;;;;;21.63;10.25;;;8.90;97.80;;;;;;5079033;28;20055;-71
2021/10/24 08:12:08;;;;;;;17.00;8.02;;;8.90;97.80;;;;;;5078640;28;20032;-71
2021/10/24 08:14:34;;;;;;;16.08;8.70;;;9.00;97.80;;;;;;5080798;28;20074;-71
2021/10/24 08:17:00;;;;;;;16.17;8.35;;;9.00;97.70;;;;;;5081816;28;20040;-72
2021/10/24 08:19:26;;;;;;;14.18;7.38;;;9.10;97.70;;;;;;5080782;28;20028;-71
2021/10/24 08:21:52;;;;;;;16.83;7.93;;;9.10;97.70;;;;;;5080164;28;20024;-71
2021/10/24 08:24:19;;;;;;;15.05;8.05;;;9.20;97.70;;;;;;5082437;28;20078;-72
2021/10/24 08:26:44;;;;;;;17.15;8.32;;;9.20;97.70;;;;;;5080333;28;20024;-71
2021/10/24 08:29:10;;;;;;;15.48;8.25;;;9.30;97.70;;;;;;5079211;28;20479;-72
2021/10/24 08:31:37;;;;;;;12.88;7.90;;;9.40;97.70;;;;;;5075467;28;20024;-72
2021/10/24 08:34:04;;;;;;;13.05;7.80;;;9.40;97.50;;;;;;5083647;28;20488;-71
2021/10/24 08:36:30;;;;;;;20.73;9.65;;;9.50;97.40;;;;;;5077292;28;20037;-72
2021/10/24 08:38:58;;;;;;;17.33;8.40;;;9.60;97.50;;;;;;5074457;28;20029;-72
2021/10/24 08:41:29;;;;;;;15.27;7.03;;;9.60;97.40;;;;;;5085152;28;20027;-72
2021/10/24 08:43:57;;;;;;;14.77;7.38;;;9.70;97.30;;;;;;5079990;28;20047;-71
2021/10/24 08:46:22;;;;;;;14.98;7.82;;;9.80;97.30;;;;;;5078688;28;20028;-71
2021/10/24 08:48:49;;;;;;;18.92;8.43;;;9.90;97.30;;;;;;5074760;28;20027;-71
2021/10/24 08:51:15;;;;;;;15.77;8.20;;;10.00;97.40;;;;;;5074886;28;20110;-72
2021/10/24 08:53:45;;;;;;;14.80;6.88;;;10.00;97.20;;;;;;5090587;28;20063;-72
2021/10/24 08:56:19;;;;;;;12.90;7.10;;;10.10;97.10;;;;;;5087870;28;20028;-72
2021/10/24 08:58:46;;;;;;;14.35;6.72;;;10.20;97.00;;;;;;5081682;28;20032;-71
2021/10/24 09:01:13;;;;;;;18.38;7.30;;;10.30;97.00;;;;;;5085938;28;20517;-71
2021/10/24 09:03:39;;;;;;;11.57;6.55;;;10.30;97.00;;;;;;5092894;28;20028;-71
2021/10/24 09:06:06;;;;;;;13.85;5.97;;;10.40;96.90;;;;;;5084751;28;20477;-71
2021/10/24 09:08:35;;;;;;;14.55;7.05;;;10.50;96.70;;;;;;5072855;28;20020;-71
2021/10/24 09:11:02;;;;;;;9.98;5.43;;;10.60;96.70;;;;;;5077424;28;20035;-71
2021/10/24 09:13:31;;;;;;;10.15;4.95;;;10.60;96.50;;;;;;5084289;28;20377;-71
2021/10/24 09:16:12;;;;;;;9.60;5.03;;;10.70;96.40;;;;;;5070716;28;20028;-71
2021/10/24 09:18:40;;;;;;;10.60;5.45;;;10.80;96.30;;;;;;5086754;28;20067;-71
2021/10/24 09:21:14;;;;;;;8.75;4.95;;;10.90;96.20;;;;;;5077359;28;20027;-71
2021/10/24 09:23:50;;;;;;;;;;;11.00;96.00;;;;;;5080872;28;20460;-71
2021/10/24 09:26:23;;;;;;;;;;;11.00;96.30;;;;;;5072271;28;20272;-70
2021/10/24 09:29:06;;;;;;;15.15;5.50;;;11.10;96.40;;;;;;5081479;28;19931;-71
2021/10/24 09:31:33;;;;;;;11.45;6.60;;;11.10;96.20;;;;;;5078018;28;20027;-71
2021/10/24 09:34:15;;;;;;;14.18;7.72;;;11.20;96.00;;;;;;5070698;28;20633;-71
2021/10/24 09:36:50;;;;;;;12.82;6.45;;;11.20;96.00;;;;;;5084242;28;20111;-71
2021/10/24 09:39:16;;;;;;;14.30;7.35;;;11.30;95.80;;;;;;5087050;28;20411;-71
2021/10/24 09:41:42;;;;;;;16.67;6.70;;;11.40;95.70;;;;;;5080019;28;20035;-70
2021/10/24 09:44:09;;;;;;;13.05;5.88;;;11.50;95.70;;;;;;5080066;28;20031;-70
2021/10/24 09:46:34;;;;;;;10.38;4.95;;;11.50;95.50;;;;;;5071705;28;20028;-70
2021/10/24 09:49:02;;;;;;;9.70;4.97;;;11.60;95.40;;;;;;5075320;28;20040;-70
2021/10/24 09:51:34;;;;;;;11.57;5.43;;;11.60;95.40;;;;;;5081942;28;20059;-70
2021/10/24 09:54:05;;;;;;;8.45;4.13;;;11.70;95.10;;;;;;5074806;28;20094;-70
2021/10/24 09:56:31;;;;;;;8.43;4.88;;;11.70;95.00;;;;;;5072047;28;20036;-70
2021/10/24 09:58:59;;;;;;;9.13;4.30;;;11.80;94.80;;;;;;5086246;28;20024;-71
2021/10/24 10:01:25;;;;;;;10.82;5.38;;;11.80;94.80;;;;;;5071697;28;20035;-70
2021/10/24 10:03:51;;;;;;;10.15;5.28;;;11.80;94.90;;;;;;5079780;28;20032;-70
2021/10/24 10:06:23;;;;;;;12.02;5.40;;;11.90;94.90;;;;;;5079094;28;20017;-70
2021/10/24 10:08:48;;;;;;;11.93;4.90;;;11.90;95.00;;;;;;5075581;28;20112;-70
2021/10/24 10:11:31;;;;;;;12.02;5.47;;;12.00;94.80;;;;;;5080635;28;20182;-70
2021/10/24 10:14:03;;;;;;;8.15;4.60;;;12.00;94.80;;;;;;5080038;28;20036;-70
2021/10/24 10:16:41;;;;;;;11.35;4.72;;;12.10;94.60;;;;;;5069390;28;20103;-69
2021/10/24 10:19:13;;;;;;;9.88;4.35;;;12.10;94.60;;;;;;5070429;28;20020;-69
2021/10/24 10:21:47;;;;;;;11.50;5.00;;;12.20;94.50;;;;;;5070942;28;20036;-69
2021/10/24 10:24:34;;;;;;;11.20;5.00;;;12.20;94.40;;;;;;5077321;28;20036;-70
2021/10/24 10:27:01;;;;;;;11.23;5.30;;;12.20;94.30;;;;;;5081276;28;20089;-70
2021/10/24 10:29:59;;;;;;;9.60;4.95;;;12.20;94.20;;;;;;5086524;28;20031;-69
2021/10/24 10:32:49;;;;;;;8.85;4.47;;;12.30;94.10;;;;;;5076295;28;20047;-70
2021/10/24 10:35:17;;;;;;;8.82;3.85;;;12.30;94.10;;;;;;5078697;28;20059;-70
2021/10/24 10:37:57;;;;;;;8.55;3.95;;;12.30;93.90;;;;;;5083684;28;20193;-69
2021/10/24 10:40:34;;;;;;;12.20;5.32;;;12.40;93.90;;;;;;5075422;28;20498;-69
2021/10/24 10:43:18;;;;;;;9.40;4.10;;;12.40;94.00;;;;;;5083492;28;20016;-69
2021/10/24 10:45:48;;;;;;;6.63;3.55;;;12.40;93.90;;;;;;5070882;28;20036;-69
2021/10/24 10:48:27;;;;;;;12.48;4.03;;;12.50;93.70;;;;;;5070708;28;20029;-70
2021/10/24 10:50:56;;;;;;;8.35;4.13;;;12.50;93.50;;;;;;5076046;28;20046;-69
2021/10/24 10:53:31;;;;;;;11.45;4.30;;;12.50;93.60;;;;;;5074143;28;20074;-69
2021/10/24 10:55:56;;;;;;;6.25;3.90;;;12.60;93.50;;;;;;5072041;28;20028;-69
2021/10/24 10:58:41;;;;;;;7.47;3.63;;;12.60;93.40;;;;;;5074363;28;20036;-69
2021/10/24 11:01:15;;;;;;;7.40;3.77;;;12.60;93.30;;;;;;5070684;28;20038;-69
2021/10/24 11:03:45;;;;;;;;;;;12.70;93.40;;;;;;5073994;28;20279;-69
2021/10/24 11:06:22;;;;;;;11.70;3.88;;;12.70;93.60;;;;;;5073518;28;19918;-69
2021/10/24 11:08:49;;;;;;;9.10;3.17;;;12.70;93.40;;;;;;5088178;28;20032;-69
2021/10/24 11:11:41;;;;;;;8.23;3.67;;;12.70;93.30;;;;;;5076161;28;20433;-69
2021/10/24 11:14:15;;;;;;;6.53;2.92;;;12.80;93.30;;;;;;5080172;28;20032;-70
2021/10/24 11:16:53;;;;;;;6.18;3.10;;;12.80;93.00;;;;;;5078043;28;20117;-70
2021/10/24 11:19:42;;;;;;;5.63;2.80;;;12.90;92.90;;;;;;5073675;28;20040;-69
2021/10/24 11:22:10;;;;;;;4.85;2.92;;;12.90;92.80;;;;;;5079924;28;20533;-69
2021/10/24 11:24:38;;;;;;;7.97;2.65;;;12.90;92.50;;;;;;5080470;28;20028;-69
2021/10/24 11:27:12;;;;;;;4.15;2.92;;;13.00;92.40;;;;;;5076419;28;20051;-69
2021/10/24 11:29:54;;;;;;;5.53;2.85;;;13.00;92.20;;;;;;5079830;28;20047;-69
2021/10/24 11:32:34;;;;;;;7.80;3.20;;;13.00;92.30;;;;;;5084391;28;20036;-69
2021/10/24 11:35:18;;;;;;;6.75;2.67;;;13.00;92.00;;;;;;5084599;28;20020;-70
2021/10/24 11:37:47;;;;;;;6.32;2.95;;;13.00;91.80;;;;;;5088780;28;20043;-69
2021/10/24 11:40:22;;;;;;;7.35;2.78;;;13.10;91.70;;;;;;5072980;28;20111;-69
2021/10/24 11:43:07;;;;;;;10.43;3.05;;;13.10;91.60;;;;;;5079166;28;20499;-69
2021/10/24 11:45:41;;;;;;;6.00;3.17;;;13.10;91.60;;;;;;5080825;28;20047;-69
2021/10/24 11:48:22;;;;;;;5.28;2.50;;;13.10;91.70;;;;;;5085934;28;20392;-70
2021/10/24 11:51:06;;;;;;;9.52;2.90;;;13.10;91.50;;;;;;5086939;28;20045;-70
2021/10/24 11:53:36;;;;;;;8.23;2.92;;;13.20;92.10;;;;;;5089720;28;20040;-70
2021/10/24 12:01:33;;;;;;;4.32;2.30;;;13.30;91.60;;;;;;5073396;28;20028;-69
2021/10/24 12:04:00;;;;;;;6.30;1.88;;;13.30;91.30;;;;;;5083323;28;20073;-69
2021/10/24 12:07:04;;;;;;;4.65;2.13;;;13.30;90.50;;;;;;5075480;28;20096;-69
2021/10/24 12:09:37;;;;;;;5.72;2.38;;;13.40;90.70;;;;;;5082336;28;20028;-69
2021/10/24 12:12:18;;;;;;;5.63;2.00;;;13.40;90.40;;;;;;5080851;28;20035;-69
2021/10/24 12:15:13;;;;;;;5.53;2.45;;;13.40;90.10;;;;;;5080187;28;20030;-69
2021/10/24 12:17:40;;;;;;;3.85;1.90;;;13.40;90.40;;;;;;5078283;28;20040;-69
2021/10/24 12:20:08;;;;;;;7.65;2.75;;;13.50;90.20;;;;;;5079668;28;20501;-70
2021/10/24 12:22:38;;;;;;;5.05;2.08;;;13.50;90.10;;;;;;5073807;28;20021;-70
2021/10/24 12:25:04;;;;;;;4.38;1.83;;;13.50;90.00;;;;;;5078276;28;20322;-70
2021/10/24 12:27:32;;;;;;;4.70;2.20;;;13.50;88.60;;;;;;5084817;28;20027;-70
2021/10/24 12:30:01;;;;;;;4.25;1.95;;;13.50;88.30;;;;;;5074166;28;20033;-70
2021/10/24 12:32:27;;;;;;;6.57;2.47;;;13.50;87.90;;;;;;5080581;28;20017;-70
2021/10/24 12:35:10;;;;;;;5.03;2.30;;;13.50;88.40;;;;;;5087558;28;20080;-69
2021/10/24 12:37:40;;;;;;;7.32;2.28;;;13.50;88.10;;;;;;5082382;28;20064;-69
2021/10/24 12:40:29;;;;;;;5.15;2.15;;;13.60;87.60;;;;;;5072292;28;20445;-68
2021/10/24 12:43:08;;;;;;;5.70;1.90;;;13.60;87.80;;;;;;5072853;28;20043;-67
2021/10/24 12:45:46;;;;;;;5.97;2.30;;;13.70;87.50;;;;;;5075227;28;20078;-68
2021/10/24 12:48:13;;;;;;;4.65;2.00;;;13.70;87.40;;;;;;5071955;28;20116;-68
2021/10/24 12:50:39;;;;;;;6.15;2.30;;;13.70;87.40;;;;;;5074144;28;20031;-68
2021/10/24 12:53:11;;;;;;;6.63;2.10;;;13.70;87.00;;;;;;5074006;28;20036;-68
2021/10/24 12:55:38;;;;;;;7.40;2.30;;;13.70;86.70;;;;;;5080845;28;20071;-68